sensor_id;sensor_type;location;lat;lon;timestamp;P1;durP1;ratioP1;P2;durP2;ratioP2
31764;SDS011;18338;53.240;8.798;2024-02-21T00:00:17;22.63;;;14.27;;
31764;SDS011;18338;53.240;8.798;2024-02-21T00:02:44;19.55;;;14.27;;
31764;SDS011;18338;53.240;8.798;2024-02-21T00:05:11;20.88;;;14.70;;
31764;SDS011;18338;53.240;8.798;2024-02-21T00:07:38;21.67;;;13.93;;
31764;SDS011;18338;53.240;8.798;2024-02-21T00:10:05;29.55;;;14.48;;
31764;SDS011;18338;53.240;8.798;2024-02-21T00:12:32;19.77;;;13.52;;
31764;SDS011;18338;53.240;8.798;2024-02-21T00:14:59;23.95;;;14.43;;
31764;SDS011;18338;53.240;8.798;2024-02-21T00:17:26;24.23;;;15.43;;
31764;SDS011;18338;53.240;8.798;2024-02-21T00:19:52;18.25;;;12.05;;
31764;SDS011;18338;53.240;8.798;2024-02-21T00:22:19;23.73;;;12.90;;
31764;SDS011;18338;53.240;8.798;2024-02-21T00:24:46;22.45;;;13.40;;
31764;SDS011;18338;53.240;8.798;2024-02-21T00:27:12;22.45;;;13.85;;
31764;SDS011;18338;53.240;8.798;2024-02-21T00:29:39;22.52;;;14.40;;
31764;SDS011;18338;53.240;8.798;2024-02-21T00:32:06;24.00;;;14.73;;
31764;SDS011;18338;53.240;8.798;2024-02-21T00:34:32;25.30;;;15.35;;
31764;SDS011;18338;53.240;8.798;2024-02-21T00:36:59;26.58;;;15.52;;
31764;SDS011;18338;53.240;8.798;2024-02-21T00:39:26;24.25;;;16.00;;
31764;SDS011;18338;53.240;8.798;2024-02-21T00:41:53;25.63;;;15.32;;
31764;SDS011;18338;53.240;8.798;2024-02-21T00:44:19;21.85;;;16.02;;
31764;SDS011;18338;53.240;8.798;2024-02-21T00:46:46;23.73;;;16.48;;
31764;SDS011;18338;53.240;8.798;2024-02-21T00:49:13;22.23;;;16.15;;
31764;SDS011;18338;53.240;8.798;2024-02-21T00:51:40;27.25;;;16.92;;
31764;SDS011;18338;53.240;8.798;2024-02-21T00:54:07;26.10;;;16.65;;
31764;SDS011;18338;53.240;8.798;2024-02-21T00:56:33;27.50;;;17.88;;
31764;SDS011;18338;53.240;8.798;2024-02-21T00:59:00;27.70;;;16.95;;
31764;SDS011;18338;53.240;8.798;2024-02-21T01:01:27;29.17;;;18.17;;
31764;SDS011;18338;53.240;8.798;2024-02-21T01:03:54;26.80;;;16.85;;
31764;SDS011;18338;53.240;8.798;2024-02-21T01:06:20;28.88;;;18.70;;
31764;SDS011;18338;53.240;8.798;2024-02-21T01:08:48;24.67;;;16.50;;
31764;SDS011;18338;53.240;8.798;2024-02-21T01:11:15;26.73;;;18.52;;
31764;SDS011;18338;53.240;8.798;2024-02-21T01:13:42;28.33;;;18.00;;
31764;SDS011;18338;53.240;8.798;2024-02-21T01:16:09;28.65;;;17.83;;
31764;SDS011;18338;53.240;8.798;2024-02-21T01:18:39;26.67;;;17.52;;
31764;SDS011;18338;53.240;8.798;2024-02-21T01:21:06;27.92;;;18.08;;
31764;SDS011;18338;53.240;8.798;2024-02-21T01:23:34;24.95;;;17.63;;
31764;SDS011;18338;53.240;8.798;2024-02-21T01:26:01;27.25;;;16.77;;
31764;SDS011;18338;53.240;8.798;2024-02-21T01:28:28;24.23;;;15.85;;
31764;SDS011;18338;53.240;8.798;2024-02-21T01:30:55;28.48;;;17.25;;
31764;SDS011;18338;53.240;8.798;2024-02-21T01:33:22;26.17;;;17.38;;
31764;SDS011;18338;53.240;8.798;2024-02-21T01:35:48;26.52;;;17.63;;
31764;SDS011;18338;53.240;8.798;2024-02-21T01:38:16;25.38;;;17.35;;
31764;SDS011;18338;53.240;8.798;2024-02-21T01:40:43;21.60;;;16.38;;
31764;SDS011;18338;53.240;8.798;2024-02-21T01:43:17;27.80;;;16.98;;
31764;SDS011;18338;53.240;8.798;2024-02-21T01:45:47;22.48;;;16.77;;
31764;SDS011;18338;53.240;8.798;2024-02-21T01:48:17;28.42;;;16.90;;
31764;SDS011;18338;53.240;8.798;2024-02-21T01:50:44;22.38;;;15.85;;
31764;SDS011;18338;53.240;8.798;2024-02-21T01:53:22;20.05;;;14.82;;
31764;SDS011;18338;53.240;8.798;2024-02-21T01:55:51;25.33;;;16.15;;
31764;SDS011;18338;53.240;8.798;2024-02-21T01:58:19;24.30;;;15.95;;
31764;SDS011;18338;53.240;8.798;2024-02-21T02:00:46;25.00;;;15.52;;
31764;SDS011;18338;53.240;8.798;2024-02-21T02:03:14;20.92;;;15.05;;
31764;SDS011;18338;53.240;8.798;2024-02-21T02:05:47;22.25;;;15.07;;
31764;SDS011;18338;53.240;8.798;2024-02-21T02:08:15;26.48;;;16.02;;
31764;SDS011;18338;53.240;8.798;2024-02-21T02:10:43;22.35;;;14.70;;
31764;SDS011;18338;53.240;8.798;2024-02-21T02:13:12;22.67;;;15.02;;
31764;SDS011;18338;53.240;8.798;2024-02-21T02:15:42;22.73;;;14.43;;
31764;SDS011;18338;53.240;8.798;2024-02-21T02:18:11;19.55;;;14.70;;
31764;SDS011;18338;53.240;8.798;2024-02-21T02:20:38;26.90;;;16.52;;
31764;SDS011;18338;53.240;8.798;2024-02-21T02:25:44;22.33;;;13.25;;
31764;SDS011;18338;53.240;8.798;2024-02-21T02:28:15;21.25;;;14.85;;
31764;SDS011;18338;53.240;8.798;2024-02-21T02:30:42;23.77;;;14.45;;
31764;SDS011;18338;53.240;8.798;2024-02-21T02:33:09;25.73;;;14.65;;
31764;SDS011;18338;53.240;8.798;2024-02-21T02:35:36;20.73;;;13.38;;
31764;SDS011;18338;53.240;8.798;2024-02-21T02:38:03;24.65;;;14.02;;
31764;SDS011;18338;53.240;8.798;2024-02-21T02:40:30;24.17;;;14.50;;
31764;SDS011;18338;53.240;8.798;2024-02-21T02:42:59;19.77;;;13.25;;
31764;SDS011;18338;53.240;8.798;2024-02-21T02:45:26;22.23;;;12.75;;
31764;SDS011;18338;53.240;8.798;2024-02-21T02:47:53;18.92;;;13.32;;
31764;SDS011;18338;53.240;8.798;2024-02-21T02:50:20;20.88;;;13.55;;
31764;SDS011;18338;53.240;8.798;2024-02-21T02:52:47;22.17;;;13.80;;
31764;SDS011;18338;53.240;8.798;2024-02-21T02:55:14;17.95;;;13.05;;
31764;SDS011;18338;53.240;8.798;2024-02-21T02:57:41;20.30;;;13.25;;
31764;SDS011;18338;53.240;8.798;2024-02-21T03:00:09;24.95;;;13.48;;
31764;SDS011;18338;53.240;8.798;2024-02-21T03:02:37;17.88;;;12.70;;
31764;SDS011;18338;53.240;8.798;2024-02-21T03:05:11;20.50;;;13.02;;
31764;SDS011;18338;53.240;8.798;2024-02-21T03:07:40;16.67;;;12.63;;
31764;SDS011;18338;53.240;8.798;2024-02-21T03:10:07;20.48;;;13.45;;
31764;SDS011;18338;53.240;8.798;2024-02-21T03:12:34;22.92;;;13.07;;
31764;SDS011;18338;53.240;8.798;2024-02-21T03:15:01;21.25;;;13.68;;
31764;SDS011;18338;53.240;8.798;2024-02-21T03:17:29;20.90;;;12.13;;
31764;SDS011;18338;53.240;8.798;2024-02-21T03:19:55;20.80;;;13.63;;
31764;SDS011;18338;53.240;8.798;2024-02-21T03:22:22;20.10;;;13.38;;
31764;SDS011;18338;53.240;8.798;2024-02-21T03:24:49;25.52;;;15.35;;
31764;SDS011;18338;53.240;8.798;2024-02-21T03:27:15;24.35;;;14.73;;
31764;SDS011;18338;53.240;8.798;2024-02-21T03:29:42;25.40;;;14.02;;
31764;SDS011;18338;53.240;8.798;2024-02-21T03:32:09;23.08;;;13.88;;
31764;SDS011;18338;53.240;8.798;2024-02-21T03:34:36;25.83;;;15.50;;
31764;SDS011;18338;53.240;8.798;2024-02-21T03:37:03;26.52;;;15.80;;
31764;SDS011;18338;53.240;8.798;2024-02-21T03:39:33;24.42;;;15.82;;
31764;SDS011;18338;53.240;8.798;2024-02-21T03:41:59;24.08;;;15.40;;
31764;SDS011;18338;53.240;8.798;2024-02-21T03:44:31;28.88;;;16.45;;
31764;SDS011;18338;53.240;8.798;2024-02-21T03:47:01;23.30;;;15.10;;
31764;SDS011;18338;53.240;8.798;2024-02-21T03:49:28;28.38;;;16.45;;
31764;SDS011;18338;53.240;8.798;2024-02-21T03:51:55;29.15;;;17.38;;
31764;SDS011;18338;53.240;8.798;2024-02-21T03:54:22;29.38;;;17.35;;
31764;SDS011;18338;53.240;8.798;2024-02-21T03:56:49;23.52;;;15.35;;
31764;SDS011;18338;53.240;8.798;2024-02-21T03:59:16;27.08;;;17.35;;
31764;SDS011;18338;53.240;8.798;2024-02-21T04:01:43;25.55;;;17.52;;
31764;SDS011;18338;53.240;8.798;2024-02-21T04:04:10;27.58;;;15.93;;
31764;SDS011;18338;53.240;8.798;2024-02-21T04:06:45;28.90;;;16.83;;
31764;SDS011;18338;53.240;8.798;2024-02-21T04:09:13;25.50;;;16.83;;
31764;SDS011;18338;53.240;8.798;2024-02-21T04:11:40;26.15;;;16.70;;
31764;SDS011;18338;53.240;8.798;2024-02-21T04:14:06;29.33;;;16.35;;
31764;SDS011;18338;53.240;8.798;2024-02-21T04:16:34;28.65;;;17.15;;
31764;SDS011;18338;53.240;8.798;2024-02-21T04:19:01;26.92;;;14.70;;
31764;SDS011;18338;53.240;8.798;2024-02-21T04:21:28;23.73;;;16.13;;
31764;SDS011;18338;53.240;8.798;2024-02-21T04:23:55;20.77;;;14.85;;
31764;SDS011;18338;53.240;8.798;2024-02-21T04:26:22;23.42;;;14.43;;
31764;SDS011;18338;53.240;8.798;2024-02-21T04:28:48;22.25;;;14.90;;
31764;SDS011;18338;53.240;8.798;2024-02-21T04:31:15;19.08;;;13.18;;
31764;SDS011;18338;53.240;8.798;2024-02-21T04:33:42;25.20;;;15.55;;
31764;SDS011;18338;53.240;8.798;2024-02-21T04:36:09;20.33;;;14.25;;
31764;SDS011;18338;53.240;8.798;2024-02-21T04:38:35;20.80;;;14.43;;
31764;SDS011;18338;53.240;8.798;2024-02-21T04:41:02;22.55;;;13.68;;
31764;SDS011;18338;53.240;8.798;2024-02-21T04:43:29;20.52;;;12.50;;
31764;SDS011;18338;53.240;8.798;2024-02-21T04:46:00;18.55;;;12.88;;
31764;SDS011;18338;53.240;8.798;2024-02-21T04:48:27;17.60;;;11.93;;
31764;SDS011;18338;53.240;8.798;2024-02-21T04:50:54;19.42;;;12.77;;
31764;SDS011;18338;53.240;8.798;2024-02-21T04:53:20;16.90;;;11.88;;
31764;SDS011;18338;53.240;8.798;2024-02-21T04:55:47;18.30;;;12.93;;
31764;SDS011;18338;53.240;8.798;2024-02-21T04:58:14;16.15;;;10.95;;
31764;SDS011;18338;53.240;8.798;2024-02-21T05:00:41;19.77;;;12.55;;
31764;SDS011;18338;53.240;8.798;2024-02-21T05:03:08;17.77;;;11.52;;
31764;SDS011;18338;53.240;8.798;2024-02-21T05:05:35;19.55;;;13.02;;
31764;SDS011;18338;53.240;8.798;2024-02-21T05:08:02;20.00;;;13.15;;
31764;SDS011;18338;53.240;8.798;2024-02-21T05:10:29;17.67;;;12.75;;
31764;SDS011;18338;53.240;8.798;2024-02-21T05:12:56;20.45;;;12.43;;
31764;SDS011;18338;53.240;8.798;2024-02-21T05:15:23;18.52;;;12.70;;
31764;SDS011;18338;53.240;8.798;2024-02-21T05:17:50;16.80;;;12.23;;
31764;SDS011;18338;53.240;8.798;2024-02-21T05:20:17;19.02;;;12.73;;
31764;SDS011;18338;53.240;8.798;2024-02-21T05:22:43;16.17;;;12.20;;
31764;SDS011;18338;53.240;8.798;2024-02-21T05:25:11;17.45;;;12.73;;
31764;SDS011;18338;53.240;8.798;2024-02-21T05:27:37;17.90;;;12.15;;
31764;SDS011;18338;53.240;8.798;2024-02-21T05:30:05;17.52;;;12.85;;
31764;SDS011;18338;53.240;8.798;2024-02-21T05:32:33;16.63;;;11.15;;
31764;SDS011;18338;53.240;8.798;2024-02-21T05:34:59;17.80;;;11.27;;
31764;SDS011;18338;53.240;8.798;2024-02-21T05:37:26;15.68;;;11.38;;
31764;SDS011;18338;53.240;8.798;2024-02-21T05:39:53;16.15;;;10.93;;
31764;SDS011;18338;53.240;8.798;2024-02-21T05:42:20;13.82;;;10.32;;
31764;SDS011;18338;53.240;8.798;2024-02-21T05:44:47;15.85;;;10.82;;
31764;SDS011;18338;53.240;8.798;2024-02-21T05:47:13;15.45;;;10.45;;
31764;SDS011;18338;53.240;8.798;2024-02-21T05:49:41;14.15;;;9.57;;
31764;SDS011;18338;53.240;8.798;2024-02-21T05:52:08;13.40;;;9.68;;
31764;SDS011;18338;53.240;8.798;2024-02-21T05:54:37;12.95;;;9.48;;
31764;SDS011;18338;53.240;8.798;2024-02-21T05:57:05;14.38;;;10.43;;
31764;SDS011;18338;53.240;8.798;2024-02-21T05:59:33;14.07;;;10.32;;
31764;SDS011;18338;53.240;8.798;2024-02-21T06:02:01;13.38;;;10.52;;
31764;SDS011;18338;53.240;8.798;2024-02-21T06:04:30;14.77;;;10.68;;
31764;SDS011;18338;53.240;8.798;2024-02-21T06:06:57;12.80;;;9.93;;
31764;SDS011;18338;53.240;8.798;2024-02-21T06:09:23;12.75;;;9.13;;
31764;SDS011;18338;53.240;8.798;2024-02-21T06:11:50;14.32;;;10.65;;
31764;SDS011;18338;53.240;8.798;2024-02-21T06:14:17;12.95;;;10.00;;
31764;SDS011;18338;53.240;8.798;2024-02-21T06:16:44;12.15;;;9.57;;
31764;SDS011;18338;53.240;8.798;2024-02-21T06:19:11;12.00;;;9.85;;
31764;SDS011;18338;53.240;8.798;2024-02-21T06:21:38;13.10;;;10.10;;
31764;SDS011;18338;53.240;8.798;2024-02-21T06:24:05;12.65;;;9.48;;
31764;SDS011;18338;53.240;8.798;2024-02-21T06:26:32;13.32;;;9.95;;
31764;SDS011;18338;53.240;8.798;2024-02-21T06:28:59;14.05;;;9.43;;
31764;SDS011;18338;53.240;8.798;2024-02-21T06:31:27;11.52;;;9.23;;
31764;SDS011;18338;53.240;8.798;2024-02-21T06:33:54;12.55;;;8.75;;
31764;SDS011;18338;53.240;8.798;2024-02-21T06:36:21;12.02;;;9.05;;
31764;SDS011;18338;53.240;8.798;2024-02-21T06:38:48;12.95;;;9.38;;
31764;SDS011;18338;53.240;8.798;2024-02-21T06:41:15;13.25;;;9.20;;
31764;SDS011;18338;53.240;8.798;2024-02-21T06:43:45;16.00;;;9.73;;
31764;SDS011;18338;53.240;8.798;2024-02-21T06:46:22;13.07;;;9.82;;
31764;SDS011;18338;53.240;8.798;2024-02-21T06:48:49;12.48;;;9.70;;
31764;SDS011;18338;53.240;8.798;2024-02-21T06:51:16;12.85;;;9.43;;
31764;SDS011;18338;53.240;8.798;2024-02-21T06:53:44;14.40;;;10.52;;
31764;SDS011;18338;53.240;8.798;2024-02-21T06:56:10;13.07;;;9.32;;
31764;SDS011;18338;53.240;8.798;2024-02-21T06:58:37;14.02;;;10.07;;
31764;SDS011;18338;53.240;8.798;2024-02-21T07:01:04;12.00;;;9.57;;
31764;SDS011;18338;53.240;8.798;2024-02-21T07:03:31;12.23;;;8.18;;
31764;SDS011;18338;53.240;8.798;2024-02-21T07:05:58;12.23;;;9.15;;
31764;SDS011;18338;53.240;8.798;2024-02-21T07:08:25;13.75;;;9.63;;
31764;SDS011;18338;53.240;8.798;2024-02-21T07:10:52;14.23;;;10.25;;
31764;SDS011;18338;53.240;8.798;2024-02-21T07:13:19;12.95;;;10.48;;
31764;SDS011;18338;53.240;8.798;2024-02-21T07:15:47;14.75;;;10.55;;
31764;SDS011;18338;53.240;8.798;2024-02-21T07:18:14;16.65;;;10.35;;
31764;SDS011;18338;53.240;8.798;2024-02-21T07:20:42;18.40;;;11.80;;
31764;SDS011;18338;53.240;8.798;2024-02-21T07:23:08;15.00;;;11.73;;
31764;SDS011;18338;53.240;8.798;2024-02-21T07:25:35;17.17;;;12.35;;
31764;SDS011;18338;53.240;8.798;2024-02-21T07:28:02;18.17;;;12.80;;
31764;SDS011;18338;53.240;8.798;2024-02-21T07:30:29;16.20;;;12.00;;
31764;SDS011;18338;53.240;8.798;2024-02-21T07:32:56;19.08;;;13.20;;
31764;SDS011;18338;53.240;8.798;2024-02-21T07:35:23;17.00;;;12.13;;
31764;SDS011;18338;53.240;8.798;2024-02-21T07:37:50;14.80;;;11.40;;
31764;SDS011;18338;53.240;8.798;2024-02-21T07:40:17;17.52;;;10.90;;
31764;SDS011;18338;53.240;8.798;2024-02-21T07:42:44;13.55;;;10.07;;
31764;SDS011;18338;53.240;8.798;2024-02-21T07:45:16;13.95;;;9.40;;
31764;SDS011;18338;53.240;8.798;2024-02-21T07:47:44;12.90;;;9.45;;
31764;SDS011;18338;53.240;8.798;2024-02-21T07:50:11;12.85;;;9.80;;
31764;SDS011;18338;53.240;8.798;2024-02-21T07:52:38;12.35;;;9.65;;
31764;SDS011;18338;53.240;8.798;2024-02-21T07:55:05;11.18;;;9.15;;
31764;SDS011;18338;53.240;8.798;2024-02-21T07:57:32;12.80;;;9.80;;
31764;SDS011;18338;53.240;8.798;2024-02-21T07:59:59;15.40;;;10.23;;
31764;SDS011;18338;53.240;8.798;2024-02-21T08:02:26;15.55;;;10.25;;
31764;SDS011;18338;53.240;8.798;2024-02-21T08:04:53;13.73;;;10.63;;
31764;SDS011;18338;53.240;8.798;2024-02-21T08:07:20;16.67;;;11.38;;
31764;SDS011;18338;53.240;8.798;2024-02-21T08:09:46;19.70;;;13.40;;
31764;SDS011;18338;53.240;8.798;2024-02-21T08:12:13;17.80;;;12.50;;
31764;SDS011;18338;53.240;8.798;2024-02-21T08:14:40;18.88;;;13.32;;
31764;SDS011;18338;53.240;8.798;2024-02-21T08:17:07;21.05;;;14.10;;
31764;SDS011;18338;53.240;8.798;2024-02-21T08:19:34;25.80;;;14.70;;
31764;SDS011;18338;53.240;8.798;2024-02-21T08:22:01;23.58;;;14.68;;
31764;SDS011;18338;53.240;8.798;2024-02-21T08:24:28;24.83;;;16.33;;
31764;SDS011;18338;53.240;8.798;2024-02-21T08:26:54;24.73;;;15.13;;
31764;SDS011;18338;53.240;8.798;2024-02-21T08:29:21;27.15;;;15.75;;
31764;SDS011;18338;53.240;8.798;2024-02-21T08:31:48;25.40;;;14.60;;
31764;SDS011;18338;53.240;8.798;2024-02-21T08:34:15;24.02;;;14.75;;
31764;SDS011;18338;53.240;8.798;2024-02-21T08:36:42;26.00;;;15.05;;
31764;SDS011;18338;53.240;8.798;2024-02-21T08:39:09;25.95;;;15.10;;
31764;SDS011;18338;53.240;8.798;2024-02-21T08:41:36;27.58;;;15.60;;
31764;SDS011;18338;53.240;8.798;2024-02-21T08:44:22;24.70;;;15.20;;
31764;SDS011;18338;53.240;8.798;2024-02-21T08:46:52;25.85;;;15.02;;
31764;SDS011;18338;53.240;8.798;2024-02-21T08:49:19;25.70;;;15.57;;
31764;SDS011;18338;53.240;8.798;2024-02-21T08:51:47;29.10;;;16.13;;
31764;SDS011;18338;53.240;8.798;2024-02-21T08:54:14;29.63;;;16.20;;
31764;SDS011;18338;53.240;8.798;2024-02-21T08:56:41;25.92;;;15.80;;
31764;SDS011;18338;53.240;8.798;2024-02-21T08:59:07;27.02;;;16.08;;
31764;SDS011;18338;53.240;8.798;2024-02-21T09:01:34;26.00;;;17.85;;
31764;SDS011;18338;53.240;8.798;2024-02-21T09:04:02;30.73;;;18.27;;
31764;SDS011;18338;53.240;8.798;2024-02-21T09:06:29;26.90;;;17.45;;
31764;SDS011;18338;53.240;8.798;2024-02-21T09:08:57;28.15;;;18.58;;
31764;SDS011;18338;53.240;8.798;2024-02-21T09:11:24;30.90;;;18.58;;
31764;SDS011;18338;53.240;8.798;2024-02-21T09:13:53;27.08;;;19.05;;
31764;SDS011;18338;53.240;8.798;2024-02-21T09:16:20;27.88;;;18.70;;
31764;SDS011;18338;53.240;8.798;2024-02-21T09:18:47;28.30;;;18.98;;
31764;SDS011;18338;53.240;8.798;2024-02-21T09:21:13;25.05;;;18.13;;
31764;SDS011;18338;53.240;8.798;2024-02-21T09:23:40;30.35;;;17.60;;
31764;SDS011;18338;53.240;8.798;2024-02-21T09:26:07;25.75;;;17.88;;
31764;SDS011;18338;53.240;8.798;2024-02-21T09:28:36;27.63;;;18.27;;
31764;SDS011;18338;53.240;8.798;2024-02-21T09:31:03;26.35;;;16.83;;
31764;SDS011;18338;53.240;8.798;2024-02-21T09:33:30;25.80;;;17.50;;
31764;SDS011;18338;53.240;8.798;2024-02-21T09:35:58;20.65;;;15.82;;
31764;SDS011;18338;53.240;8.798;2024-02-21T09:38:26;24.67;;;16.33;;
31764;SDS011;18338;53.240;8.798;2024-02-21T09:41:00;22.13;;;15.07;;
31764;SDS011;18338;53.240;8.798;2024-02-21T09:43:51;22.90;;;15.73;;
31764;SDS011;18338;53.240;8.798;2024-02-21T09:46:23;21.02;;;16.02;;
31764;SDS011;18338;53.240;8.798;2024-02-21T09:51:48;19.85;;;15.15;;
31764;SDS011;18338;53.240;8.798;2024-02-21T09:54:17;21.52;;;14.07;;
31764;SDS011;18338;53.240;8.798;2024-02-21T09:56:45;19.23;;;14.20;;
31764;SDS011;18338;53.240;8.798;2024-02-21T09:59:14;23.15;;;14.90;;
31764;SDS011;18338;53.240;8.798;2024-02-21T10:01:42;20.98;;;14.75;;
31764;SDS011;18338;53.240;8.798;2024-02-21T10:04:10;23.25;;;15.57;;
31764;SDS011;18338;53.240;8.798;2024-02-21T10:06:37;21.55;;;14.70;;
31764;SDS011;18338;53.240;8.798;2024-02-21T10:09:05;21.02;;;15.27;;
31764;SDS011;18338;53.240;8.798;2024-02-21T10:11:33;19.10;;;14.65;;
31764;SDS011;18338;53.240;8.798;2024-02-21T10:14:04;25.17;;;17.35;;
31764;SDS011;18338;53.240;8.798;2024-02-21T10:16:34;34.33;;;25.58;;
31764;SDS011;18338;53.240;8.798;2024-02-21T10:19:01;22.23;;;15.77;;
31764;SDS011;18338;53.240;8.798;2024-02-21T10:21:30;21.60;;;12.95;;
31764;SDS011;18338;53.240;8.798;2024-02-21T10:23:56;32.65;;;23.95;;
31764;SDS011;18338;53.240;8.798;2024-02-21T10:26:23;20.45;;;16.42;;
31764;SDS011;18338;53.240;8.798;2024-02-21T10:28:50;20.92;;;14.95;;
31764;SDS011;18338;53.240;8.798;2024-02-21T10:31:24;18.17;;;12.85;;
31764;SDS011;18338;53.240;8.798;2024-02-21T10:33:56;17.98;;;13.85;;
31764;SDS011;18338;53.240;8.798;2024-02-21T10:36:24;15.43;;;13.38;;
31764;SDS011;18338;53.240;8.798;2024-02-21T10:38:51;18.27;;;12.13;;
31764;SDS011;18338;53.240;8.798;2024-02-21T10:41:19;19.02;;;14.68;;
31764;SDS011;18338;53.240;8.798;2024-02-21T10:43:49;21.17;;;14.07;;
31764;SDS011;18338;53.240;8.798;2024-02-21T10:46:20;24.08;;;18.23;;
31764;SDS011;18338;53.240;8.798;2024-02-21T10:51:37;24.23;;;14.40;;
31764;SDS011;18338;53.240;8.798;2024-02-21T10:56:58;16.42;;;12.68;;
31764;SDS011;18338;53.240;8.798;2024-02-21T10:59:31;16.05;;;13.77;;
31764;SDS011;18338;53.240;8.798;2024-02-21T11:02:00;16.20;;;12.93;;
31764;SDS011;18338;53.240;8.798;2024-02-21T11:04:28;16.13;;;11.50;;
31764;SDS011;18338;53.240;8.798;2024-02-21T11:06:58;19.20;;;13.38;;
31764;SDS011;18338;53.240;8.798;2024-02-21T11:09:30;18.23;;;12.35;;
31764;SDS011;18338;53.240;8.798;2024-02-21T11:12:03;19.60;;;12.45;;
31764;SDS011;18338;53.240;8.798;2024-02-21T11:14:31;16.52;;;11.52;;
31764;SDS011;18338;53.240;8.798;2024-02-21T11:17:18;15.82;;;10.93;;
31764;SDS011;18338;53.240;8.798;2024-02-21T11:19:47;16.33;;;11.65;;
31764;SDS011;18338;53.240;8.798;2024-02-21T11:22:18;18.52;;;12.02;;
31764;SDS011;18338;53.240;8.798;2024-02-21T11:24:47;14.13;;;11.18;;
31764;SDS011;18338;53.240;8.798;2024-02-21T11:29:45;14.82;;;11.85;;
31764;SDS011;18338;53.240;8.798;2024-02-21T11:32:14;13.70;;;10.00;;
31764;SDS011;18338;53.240;8.798;2024-02-21T11:34:41;15.52;;;9.93;;
31764;SDS011;18338;53.240;8.798;2024-02-21T11:37:24;12.77;;;9.77;;
31764;SDS011;18338;53.240;8.798;2024-02-21T11:39:53;13.10;;;10.07;;
31764;SDS011;18338;53.240;8.798;2024-02-21T11:42:26;10.57;;;8.25;;
31764;SDS011;18338;53.240;8.798;2024-02-21T11:44:55;12.55;;;8.38;;
31764;SDS011;18338;53.240;8.798;2024-02-21T11:47:28;11.57;;;8.32;;
31764;SDS011;18338;53.240;8.798;2024-02-21T11:49:55;13.43;;;9.00;;
31764;SDS011;18338;53.240;8.798;2024-02-21T11:52:22;11.98;;;8.20;;
31764;SDS011;18338;53.240;8.798;2024-02-21T11:54:53;10.88;;;7.90;;
31764;SDS011;18338;53.240;8.798;2024-02-21T11:57:23;14.05;;;7.85;;
31764;SDS011;18338;53.240;8.798;2024-02-21T11:59:50;10.68;;;7.90;;
31764;SDS011;18338;53.240;8.798;2024-02-21T12:02:24;9.25;;;7.93;;
31764;SDS011;18338;53.240;8.798;2024-02-21T12:04:51;11.55;;;7.47;;
31764;SDS011;18338;53.240;8.798;2024-02-21T12:07:18;10.52;;;7.75;;
31764;SDS011;18338;53.240;8.798;2024-02-21T12:09:45;11.23;;;7.15;;
31764;SDS011;18338;53.240;8.798;2024-02-21T12:12:12;12.73;;;8.07;;
31764;SDS011;18338;53.240;8.798;2024-02-21T12:14:39;10.13;;;7.47;;
31764;SDS011;18338;53.240;8.798;2024-02-21T12:17:06;9.90;;;7.40;;
31764;SDS011;18338;53.240;8.798;2024-02-21T12:19:33;12.27;;;6.65;;
31764;SDS011;18338;53.240;8.798;2024-02-21T12:22:01;10.90;;;7.50;;
31764;SDS011;18338;53.240;8.798;2024-02-21T12:24:32;10.63;;;7.05;;
31764;SDS011;18338;53.240;8.798;2024-02-21T12:26:59;7.05;;;5.75;;
31764;SDS011;18338;53.240;8.798;2024-02-21T12:29:26;7.25;;;6.20;;
31764;SDS011;18338;53.240;8.798;2024-02-21T12:31:54;9.93;;;6.53;;
31764;SDS011;18338;53.240;8.798;2024-02-21T12:34:23;7.30;;;5.55;;
31764;SDS011;18338;53.240;8.798;2024-02-21T12:37:04;8.50;;;5.75;;
31764;SDS011;18338;53.240;8.798;2024-02-21T12:39:30;9.52;;;4.68;;
31764;SDS011;18338;53.240;8.798;2024-02-21T12:41:58;10.07;;;6.13;;
31764;SDS011;18338;53.240;8.798;2024-02-21T12:44:25;10.15;;;6.53;;
31764;SDS011;18338;53.240;8.798;2024-02-21T12:46:53;6.88;;;5.18;;
31764;SDS011;18338;53.240;8.798;2024-02-21T12:49:21;8.85;;;5.82;;
31764;SDS011;18338;53.240;8.798;2024-02-21T12:51:48;8.45;;;6.43;;
31764;SDS011;18338;53.240;8.798;2024-02-21T12:54:15;7.25;;;4.53;;
31764;SDS011;18338;53.240;8.798;2024-02-21T12:56:42;9.07;;;5.15;;
31764;SDS011;18338;53.240;8.798;2024-02-21T12:59:09;6.25;;;3.88;;
31764;SDS011;18338;53.240;8.798;2024-02-21T13:01:36;7.13;;;5.00;;
31764;SDS011;18338;53.240;8.798;2024-02-21T13:04:04;5.75;;;4.03;;
31764;SDS011;18338;53.240;8.798;2024-02-21T13:06:32;5.43;;;3.97;;
31764;SDS011;18338;53.240;8.798;2024-02-21T13:09:02;9.50;;;5.20;;
31764;SDS011;18338;53.240;8.798;2024-02-21T13:11:30;8.30;;;4.50;;
31764;SDS011;18338;53.240;8.798;2024-02-21T13:13:58;8.00;;;4.18;;
31764;SDS011;18338;53.240;8.798;2024-02-21T13:16:25;6.57;;;3.95;;
31764;SDS011;18338;53.240;8.798;2024-02-21T13:18:53;7.88;;;5.07;;
31764;SDS011;18338;53.240;8.798;2024-02-21T13:21:20;5.20;;;3.83;;
31764;SDS011;18338;53.240;8.798;2024-02-21T13:23:47;6.18;;;4.28;;
31764;SDS011;18338;53.240;8.798;2024-02-21T13:26:14;6.43;;;3.53;;
31764;SDS011;18338;53.240;8.798;2024-02-21T13:28:41;5.55;;;4.25;;
31764;SDS011;18338;53.240;8.798;2024-02-21T13:31:11;5.93;;;3.45;;
31764;SDS011;18338;53.240;8.798;2024-02-21T13:33:38;9.23;;;6.55;;
31764;SDS011;18338;53.240;8.798;2024-02-21T13:36:05;9.48;;;5.75;;
31764;SDS011;18338;53.240;8.798;2024-02-21T13:38:32;15.40;;;10.85;;
31764;SDS011;18338;53.240;8.798;2024-02-21T13:40:58;8.73;;;5.38;;
31764;SDS011;18338;53.240;8.798;2024-02-21T13:43:27;4.30;;;3.50;;
31764;SDS011;18338;53.240;8.798;2024-02-21T13:46:00;6.28;;;4.20;;
31764;SDS011;18338;53.240;8.798;2024-02-21T13:48:35;11.30;;;4.80;;
31764;SDS011;18338;53.240;8.798;2024-02-21T13:51:03;7.43;;;4.65;;
31764;SDS011;18338;53.240;8.798;2024-02-21T13:53:30;9.10;;;7.00;;
31764;SDS011;18338;53.240;8.798;2024-02-21T13:55:56;5.65;;;4.47;;
31764;SDS011;18338;53.240;8.798;2024-02-21T13:58:23;4.38;;;3.50;;
31764;SDS011;18338;53.240;8.798;2024-02-21T14:00:51;6.57;;;4.25;;
31764;SDS011;18338;53.240;8.798;2024-02-21T14:03:18;7.05;;;5.10;;
31764;SDS011;18338;53.240;8.798;2024-02-21T14:05:46;8.05;;;4.80;;
31764;SDS011;18338;53.240;8.798;2024-02-21T14:08:14;7.60;;;5.20;;
31764;SDS011;18338;53.240;8.798;2024-02-21T14:10:42;7.22;;;5.22;;
31764;SDS011;18338;53.240;8.798;2024-02-21T14:13:09;6.18;;;5.57;;
31764;SDS011;18338;53.240;8.798;2024-02-21T14:15:36;9.75;;;5.93;;
31764;SDS011;18338;53.240;8.798;2024-02-21T14:18:03;8.93;;;5.75;;
31764;SDS011;18338;53.240;8.798;2024-02-21T14:20:35;6.78;;;6.07;;
31764;SDS011;18338;53.240;8.798;2024-02-21T14:23:02;10.40;;;6.40;;
31764;SDS011;18338;53.240;8.798;2024-02-21T14:25:31;7.38;;;6.68;;
31764;SDS011;18338;53.240;8.798;2024-02-21T14:27:59;8.25;;;7.43;;
31764;SDS011;18338;53.240;8.798;2024-02-21T14:30:29;8.95;;;6.85;;
31764;SDS011;18338;53.240;8.798;2024-02-21T14:32:55;8.18;;;7.38;;
31764;SDS011;18338;53.240;8.798;2024-02-21T14:35:22;8.60;;;7.65;;
31764;SDS011;18338;53.240;8.798;2024-02-21T14:37:50;9.73;;;7.70;;
31764;SDS011;18338;53.240;8.798;2024-02-21T14:40:18;10.02;;;8.00;;
31764;SDS011;18338;53.240;8.798;2024-02-21T14:42:48;8.55;;;7.70;;
31764;SDS011;18338;53.240;8.798;2024-02-21T14:45:14;9.77;;;8.05;;